Search for airport 
image banner adimage banner adimage banner ad
image banner ad

CA43 - Barton Memorial Hospital

Located in South Lake Tahoe, United States

ICAO - CA43, IATA -

Data provided by Airmate  

General information

Coordinates: N38°54'41" W119°59'49"
Elevation is 6298 feet MSL.
Magnetic variation is 16° East
View others Airports in California

Operational data

Special qualification required
Current time UTC:
Current local time:
Weather at : KTVL - Lake Tahoe ( 2 km )
METAR: KTVL 141153Z AUTO 02003KT 10SM CLR 07/05 A3015 RMK AO2 SLP160 T00670050 10144 20067 53000
TAF: KTVL 141120Z 1412/1512 18007KT P6SM SKC WS020/22035KT FM141800 20014G25KT P6SM FEW070 FM150400 19009KT P6SM SKC WS020/21030KT
View NOTAMs / SUP AIP / TFR affecting this airport [VIEW]
Communications frequencies: [VIEW]

Runways:

Airport contact information

Address: South Lake Tahoe United States

Satellite view of CA43